Time;durP1;ratioP1;P1;durP2;ratioP2;P2;SDS_P1;SDS_P2;PMS_P1;PMS_P2;Temp;Humidity;BMP_temperature;BMP_pressure;BME280_temperature;BME280_humidity;BME280_pressure;Samples;Min_cycle;Max_cycle;Signal;HPM_P1;HPM_P2
2023/07/31 00:00:55;;;;;;;13.20;11.30;;;;;;;26.45;54.26;99408.59;107945;1256;60656;-67
2023/07/31 00:03:22;;;;;;;16.30;11.60;;;;;;;26.45;54.12;99408.89;107935;1253;59504;-69
2023/07/31 00:05:49;;;;;;;13.60;10.70;;;;;;;26.52;54.14;99405.73;107956;1253;73037;-68
2023/07/31 00:08:17;;;;;;;16.40;12.90;;;;;;;26.62;53.74;99402.02;107967;1253;68870;-68
2023/07/31 00:10:44;;;;;;;16.40;13.30;;;;;;;26.70;53.48;99398.65;107937;1253;72639;-68
2023/07/31 00:13:11;;;;;;;15.00;11.70;;;;;;;26.57;53.75;99399.80;108045;1253;59913;-67
2023/07/31 00:15:39;;;;;;;22.40;14.80;;;;;;;26.66;53.51;99401.28;107951;1253;59528;-69
2023/07/31 00:18:07;;;;;;;16.90;13.50;;;;;;;26.61;53.86;99400.13;107935;1253;71748;-66
2023/07/31 00:20:34;;;;;;;18.20;14.40;;;;;;;26.41;54.33;99398.75;107961;1253;70340;-66
2023/07/31 00:23:02;;;;;;;21.50;15.50;;;;;;;26.21;54.87;99396.80;107956;1256;72789;-70
2023/07/31 00:25:29;;;;;;;18.60;14.10;;;;;;;25.96;55.42;99393.39;108045;1253;61603;-70
2023/07/31 00:27:56;;;;;;;17.60;14.70;;;;;;;26.22;54.85;99390.11;107963;1253;60015;-69
2023/07/31 00:30:26;;;;;;;14.70;12.80;;;;;;;26.47;54.19;99390.10;107907;1253;73079;-69
2023/07/31 00:32:54;;;;;;;20.50;12.10;;;;;;;26.32;54.26;99390.10;108008;1253;69923;-69
2023/07/31 00:35:21;;;;;;;16.90;13.20;;;;;;;26.36;54.09;99394.33;108053;1255;72414;-71
2023/07/31 00:37:48;;;;;;;14.10;12.10;;;;;;;26.34;54.13;99396.63;107949;1253;61710;-69
2023/07/31 00:40:16;;;;;;;22.70;12.70;;;;;;;26.40;53.96;99394.74;107950;1253;60471;-70
2023/07/31 00:42:43;;;;;;;16.60;12.50;;;;;;;26.34;53.91;99394.17;108056;1253;71769;-68
2023/07/31 00:45:11;;;;;;;19.40;12.60;;;;;;;25.73;55.20;99385.73;107923;1253;68658;-68
2023/07/31 00:47:38;;;;;;;20.20;12.30;;;;;;;25.57;55.65;99386.24;107944;1253;72687;-70
2023/07/31 00:50:07;;;;;;;15.90;12.00;;;;;;;25.54;55.68;99387.94;107680;1253;61750;-70
2023/07/31 00:52:35;;;;;;;18.80;12.70;;;;;;;25.42;56.02;99383.51;108134;1256;59447;-68
2023/07/31 00:55:03;;;;;;;17.40;11.50;;;;;;;25.40;55.96;99380.99;107956;1253;71944;-70
2023/07/31 00:57:32;;;;;;;15.50;11.20;;;;;;;25.28;56.12;99383.05;107899;1253;69272;-68
2023/07/31 00:59:59;;;;;;;22.70;12.20;;;;;;;25.21;56.21;99386.11;108084;1253;72418;-71
2023/07/31 01:02:27;;;;;;;20.90;11.30;;;;;;;25.24;56.23;99385.84;107900;1255;60528;-68
2023/07/31 01:04:55;;;;;;;18.20;11.60;;;;;;;25.13;56.42;99385.37;107624;1253;60381;-69
2023/07/31 01:07:30;;;;;;;21.50;12.40;;;;;;;25.14;56.59;99380.40;107985;1253;73824;-69
2023/07/31 01:10:26;;;;;;;19.30;11.20;;;;;;;24.94;56.78;99383.33;108053;1253;68875;-68
2023/07/31 01:12:53;;;;;;;20.30;11.40;;;;;;;24.68;57.60;99388.48;107902;1256;71754;-69
2023/07/31 01:15:21;;;;;;;17.60;11.30;;;;;;;24.86;57.10;99392.64;107984;1254;61623;-70
2023/07/31 01:17:48;;;;;;;17.70;11.50;;;;;;;25.01;56.62;99388.16;108007;1253;60496;-69
2023/07/31 01:20:24;;;;;;;19.00;11.60;;;;;;;24.74;57.31;99391.81;107879;1253;74378;-70
2023/07/31 01:22:54;;;;;;;21.10;12.30;;;;;;;24.70;57.33;99389.36;107891;1253;70140;-67
2023/07/31 01:25:31;;;;;;;13.70;11.90;;;;;;;24.67;57.46;99394.30;108059;1254;71586;-65
2023/07/31 01:28:07;;;;;;;16.40;11.90;;;;;;;24.60;57.75;99398.15;108062;1253;61671;-68
2023/07/31 01:30:38;;;;;;;17.80;11.60;;;;;;;24.55;57.82;99401.23;108051;1252;60259;-68
2023/07/31 01:33:09;;;;;;;14.40;10.90;;;;;;;24.39;58.22;99398.49;108021;1253;72041;-68
2023/07/31 01:35:37;;;;;;;15.10;11.50;;;;;;;24.31;58.57;99406.01;108065;1254;70498;-68
2023/07/31 01:38:04;;;;;;;12.90;10.10;;;;;;;24.26;58.88;99409.09;108125;1254;72664;-68
2023/07/31 01:40:32;;;;;;;13.20;10.40;;;;;;;24.35;58.96;99403.12;108093;1254;61655;-68
2023/07/31 01:42:59;;;;;;;16.60;12.20;;;;;;;24.32;59.47;99405.24;108136;1253;60325;-67
2023/07/31 01:45:28;;;;;;;14.40;12.30;;;;;;;24.22;59.95;99406.11;108192;1253;72691;-70
2023/07/31 01:47:56;;;;;;;16.40;12.90;;;;;;;24.48;59.74;99404.58;108211;1253;70611;-69
2023/07/31 01:50:23;;;;;;;16.60;13.20;;;;;;;25.01;58.38;99402.85;108096;1254;72639;-68
2023/07/31 01:52:51;;;;;;;15.40;12.40;;;;;;;25.12;58.44;99399.13;108161;1254;61720;-65
2023/07/31 01:55:18;;;;;;;17.30;13.20;;;;;;;25.25;58.35;99403.46;107989;1254;60292;-68
2023/07/31 01:57:45;;;;;;;21.80;13.20;;;;;;;25.07;59.17;99403.13;108137;1254;73812;-70
2023/07/31 02:00:13;;;;;;;18.30;14.90;;;;;;;25.11;59.49;99405.52;108088;1254;68671;-70
2023/07/31 02:02:40;;;;;;;16.60;14.50;;;;;;;25.31;59.39;99397.25;108073;1253;71824;-66
2023/07/31 02:05:08;;;;;;;16.10;14.20;;;;;;;25.37;59.51;99403.48;108056;1254;61091;-69
2023/07/31 02:07:35;;;;;;;23.00;14.30;;;;;;;25.27;59.94;99404.70;107991;1253;60338;-69
2023/07/31 02:10:03;;;;;;;15.60;13.60;;;;;;;25.32;60.17;99398.74;107988;1254;73822;-69
2023/07/31 02:12:31;;;;;;;24.70;14.20;;;;;;;25.38;60.18;99399.04;108073;1254;69944;-67
2023/07/31 02:14:59;;;;;;;17.60;13.80;;;;;;;25.43;60.30;99396.34;108160;1253;72581;-70
2023/07/31 02:17:26;;;;;;;17.50;13.90;;;;;;;25.53;60.14;99395.55;108149;1254;61614;-69
2023/07/31 02:19:54;;;;;;;21.10;15.50;;;;;;;25.67;59.99;99394.88;108216;1253;60448;-69
2023/07/31 02:22:21;;;;;;;18.90;14.30;;;;;;;25.79;59.84;99395.73;108066;1251;73790;-68
2023/07/31 02:24:49;;;;;;;16.20;13.10;;;;;;;26.16;59.02;99395.18;108146;1253;70101;-68
2023/07/31 02:27:16;;;;;;;23.30;16.60;;;;;;;26.37;58.47;99393.45;107963;1254;72889;-68
2023/07/31 02:29:45;;;;;;;25.40;17.80;;;;;;;26.33;58.77;99399.47;107946;1253;61798;-69
2023/07/31 02:32:13;;;;;;;28.40;19.10;;;;;;;26.48;58.44;99399.19;107994;1253;60337;-69
2023/07/31 02:34:41;;;;;;;25.60;17.80;;;;;;;26.40;58.93;99404.98;108246;1253;74811;-68
2023/07/31 02:37:09;;;;;;;22.40;15.20;;;;;;;26.42;58.95;99405.96;108108;1253;70080;-70
2023/07/31 02:39:36;;;;;;;26.20;17.10;;;;;;;26.57;58.59;99399.59;108103;1253;72657;-69
2023/07/31 02:42:04;;;;;;;25.70;16.40;;;;;;;26.65;58.49;99402.30;108046;1253;60410;-69
2023/07/31 02:44:31;;;;;;;22.60;14.60;;;;;;;26.67;58.44;99400.49;108246;1252;61015;-70
2023/07/31 02:47:00;;;;;;;28.20;16.70;;;;;;;26.60;58.87;99397.70;107988;1253;73877;-68
2023/07/31 02:49:28;;;;;;;26.60;17.60;;;;;;;26.56;59.04;99395.98;108044;1253;70329;-70
2023/07/31 02:51:55;;;;;;;28.70;17.50;;;;;;;26.55;59.09;99393.05;108132;1253;71443;-69
2023/07/31 02:54:22;;;;;;;25.50;16.80;;;;;;;26.66;59.11;99395.23;108066;1257;60673;-67
2023/07/31 02:56:50;;;;;;;17.40;13.40;;;;;;;26.82;58.49;99397.59;108103;1253;59118;-70
2023/07/31 02:59:18;;;;;;;23.90;16.50;;;;;;;26.89;58.25;99399.87;108083;1253;73805;-68
2023/07/31 03:01:45;;;;;;;19.70;14.90;;;;;;;26.84;58.46;99402.27;108122;1253;70072;-69
2023/07/31 03:04:13;;;;;;;25.70;15.90;;;;;;;26.84;58.53;99401.48;108120;1253;72469;-69
2023/07/31 03:06:42;;;;;;;22.40;14.00;;;;;;;26.78;58.52;99401.91;108022;1255;61722;-67
2023/07/31 03:09:10;;;;;;;20.40;13.20;;;;;;;26.79;58.51;99398.02;108117;1253;60431;-70
2023/07/31 03:11:38;;;;;;;19.30;14.60;;;;;;;26.86;58.28;99399.08;108127;1253;72052;-69
2023/07/31 03:14:05;;;;;;;19.70;15.10;;;;;;;26.52;59.22;99400.55;108094;1253;70115;-69
2023/07/31 03:16:33;;;;;;;19.40;14.60;;;;;;;26.36;59.79;99402.52;108196;1253;72489;-71
2023/07/31 03:19:00;;;;;;;16.90;13.10;;;;;;;26.39;59.78;99397.76;108143;1253;61660;-70
2023/07/31 03:21:28;;;;;;;14.90;11.00;;;;;;;26.56;59.21;99399.34;107948;1252;60322;-70
2023/07/31 03:23:55;;;;;;;18.40;13.30;;;;;;;26.60;58.89;99411.29;108087;1253;71614;-69
2023/07/31 03:26:23;;;;;;;15.80;11.70;;;;;;;26.72;58.49;99413.80;108073;1253;70071;-70
2023/07/31 03:28:50;;;;;;;15.70;12.30;;;;;;;26.84;58.13;99413.75;107890;1253;72570;-69
2023/07/31 03:31:17;;;;;;;18.20;12.70;;;;;;;26.83;58.36;99418.45;107914;1256;62061;-70
2023/07/31 03:33:45;;;;;;;14.70;11.60;;;;;;;26.87;58.18;99419.00;108107;1253;60332;-69
2023/07/31 03:36:12;;;;;;;19.40;13.80;;;;;;;27.16;57.53;99417.30;107942;1253;73939;-69
2023/07/31 03:38:40;;;;;;;18.20;13.20;;;;;;;27.28;57.23;99412.64;107923;1253;68854;-70
2023/07/31 03:41:07;;;;;;;17.60;13.00;;;;;;;27.27;57.30;99413.04;107886;1253;72626;-72
2023/07/31 03:43:36;;;;;;;18.80;12.80;;;;;;;27.31;57.27;99413.45;107937;1256;61737;-70
2023/07/31 03:46:03;;;;;;;15.30;12.20;;;;;;;27.14;57.57;99422.89;107909;1253;60397;-71
2023/07/31 03:48:31;;;;;;;16.50;12.10;;;;;;;26.94;58.39;99431.48;107921;1258;73845;-71
2023/07/31 03:50:58;;;;;;;17.30;12.80;;;;;;;27.02;58.23;99427.75;107969;1253;70469;-70
2023/07/31 03:53:25;;;;;;;18.70;13.20;;;;;;;27.12;58.05;99428.21;107964;1260;72636;-71
2023/07/31 03:55:53;;;;;;;16.70;13.40;;;;;;;27.06;58.15;99428.49;108072;1258;61563;-72
2023/07/31 03:58:20;;;;;;;19.20;14.00;;;;;;;26.94;58.76;99426.15;108053;1253;60380;-71
2023/07/31 04:00:48;;;;;;;18.00;13.60;;;;;;;26.88;58.97;99428.45;108021;1253;73840;-70
2023/07/31 04:03:15;;;;;;;19.40;14.80;;;;;;;26.86;59.30;99423.63;107976;1253;70277;-69
2023/07/31 04:05:43;;;;;;;14.20;11.50;;;;;;;27.08;58.82;99422.88;108002;1258;72716;-70
2023/07/31 04:08:10;;;;;;;17.70;14.10;;;;;;;27.17;58.66;99419.63;107972;1253;62135;-70
2023/07/31 04:10:37;;;;;;;18.60;13.40;;;;;;;27.27;58.70;99421.41;108008;1258;60465;-69
2023/07/31 04:13:05;;;;;;;18.10;12.70;;;;;;;27.42;58.46;99420.69;108066;1253;72632;-69
2023/07/31 04:15:32;;;;;;;14.70;11.70;;;;;;;27.71;57.79;99414.56;108061;1253;69360;-68
2023/07/31 04:17:59;;;;;;;15.10;12.30;;;;;;;28.03;57.06;99420.35;107999;1253;72203;-69
2023/07/31 04:20:27;;;;;;;17.10;13.20;;;;;;;28.48;55.56;99424.50;107939;1254;61687;-70
2023/07/31 04:22:54;;;;;;;16.50;12.10;;;;;;;28.58;55.07;99428.54;107928;1254;59181;-69
2023/07/31 04:25:21;;;;;;;14.90;11.50;;;;;;;28.74;54.50;99429.35;107977;1253;73766;-70
2023/07/31 04:27:49;;;;;;;13.10;11.60;;;;;;;28.71;54.13;99433.15;107994;1253;68706;-70
2023/07/31 04:30:16;;;;;;;16.30;12.80;;;;;;;28.70;54.13;99436.34;107930;1253;73084;-68
2023/07/31 04:32:43;;;;;;;13.20;11.10;;;;;;;28.77;53.97;99441.46;107894;1256;60498;-70
2023/07/31 04:35:11;;;;;;;17.50;12.80;;;;;;;28.93;53.43;99450.82;108058;1253;60284;-70
2023/07/31 04:37:38;;;;;;;15.20;12.30;;;;;;;28.70;54.07;99454.77;108058;1253;72654;-70
2023/07/31 04:40:07;;;;;;;17.60;13.00;;;;;;;28.28;55.11;99445.17;107968;1253;70297;-70
2023/07/31 04:42:34;;;;;;;19.10;13.80;;;;;;;27.53;56.80;99441.20;108031;1253;72770;-70
2023/07/31 04:45:02;;;;;;;17.10;12.30;;;;;;;27.29;57.87;99445.43;108089;1258;61770;-71
2023/07/31 04:47:30;;;;;;;14.70;12.40;;;;;;;27.37;57.86;99447.60;108003;1254;60212;-69
2023/07/31 04:49:57;;;;;;;13.50;10.80;;;;;;;27.58;57.13;99446.30;107934;1253;71907;-70
2023/07/31 04:52:24;;;;;;;18.50;11.70;;;;;;;27.63;56.92;99449.32;108046;1258;69919;-70
2023/07/31 04:54:52;;;;;;;15.20;13.30;;;;;;;27.73;56.82;99453.02;108019;1253;74218;-70
2023/07/31 04:57:19;;;;;;;13.30;11.70;;;;;;;27.77;56.74;99460.11;107937;1258;61720;-69
2023/07/31 04:59:46;;;;;;;13.90;12.40;;;;;;;27.69;57.05;99461.69;107908;1257;60460;-70
2023/07/31 05:02:16;;;;;;;17.60;13.70;;;;;;;27.77;56.97;99464.83;108119;1254;73827;-70
2023/07/31 05:04:43;;;;;;;12.10;10.80;;;;;;;27.68;57.06;99466.59;107897;1258;69212;-70
2023/07/31 05:07:11;;;;;;;16.70;12.50;;;;;;;27.77;56.71;99465.70;107883;1260;71475;-71
2023/07/31 05:09:39;;;;;;;13.50;12.10;;;;;;;27.58;57.23;99469.04;108128;1253;61754;-70
2023/07/31 05:12:06;;;;;;;15.50;13.70;;;;;;;27.74;56.95;99473.46;107969;1253;60864;-70
2023/07/31 05:14:34;;;;;;;14.10;12.50;;;;;;;27.85;56.59;99478.31;108027;1254;74320;-70
2023/07/31 05:17:01;;;;;;;14.50;12.50;;;;;;;27.84;56.30;99481.80;108019;1253;69961;-69
2023/07/31 05:19:29;;;;;;;14.10;12.60;;;;;;;27.50;57.15;99491.05;108023;1253;71449;-70
2023/07/31 05:21:56;;;;;;;14.30;11.80;;;;;;;27.53;57.37;99490.10;107901;1254;61495;-70
2023/07/31 05:24:23;;;;;;;13.50;12.10;;;;;;;27.56;57.30;99488.07;107963;1254;60470;-70
2023/07/31 05:26:51;;;;;;;15.10;12.60;;;;;;;27.49;57.45;99487.85;108101;1257;74336;-70
2023/07/31 05:29:18;;;;;;;11.60;10.40;;;;;;;27.63;57.20;99481.11;107925;1254;70536;-70
2023/07/31 05:31:46;;;;;;;16.20;13.00;;;;;;;27.80;56.36;99486.14;108130;1252;72640;-69
2023/07/31 05:34:13;;;;;;;14.00;11.80;;;;;;;27.71;56.83;99487.35;108190;1256;61670;-71
2023/07/31 05:36:41;;;;;;;15.20;11.90;;;;;;;28.06;56.10;99493.84;108066;1253;60402;-70
2023/07/31 05:39:08;;;;;;;14.50;13.00;;;;;;;28.19;55.63;99490.04;108114;1254;73876;-71
2023/07/31 05:41:36;;;;;;;15.30;12.70;;;;;;;28.25;55.13;99491.73;108001;1253;70279;-70
2023/07/31 05:44:03;;;;;;;14.70;13.20;;;;;;;28.26;55.02;99494.13;108051;1254;71879;-70
2023/07/31 05:46:31;;;;;;;16.80;14.20;;;;;;;28.30;54.99;99496.73;108133;1253;60352;-69
2023/07/31 05:49:00;;;;;;;15.20;13.10;;;;;;;28.44;54.73;99499.89;108105;1252;60348;-70
2023/07/31 05:51:28;;;;;;;16.50;13.50;;;;;;;28.29;55.03;99491.62;108257;1253;73785;-70
2023/07/31 05:53:56;;;;;;;15.50;12.70;;;;;;;28.10;55.52;99489.00;108055;1256;70678;-71
2023/07/31 05:56:23;;;;;;;16.20;14.50;;;;;;;28.33;55.63;99484.80;108060;1254;71346;-70
2023/07/31 05:58:50;;;;;;;16.90;15.10;;;;;;;28.51;55.05;99480.83;107996;1254;61677;-71
2023/07/31 06:01:18;;;;;;;17.00;15.20;;;;;;;28.83;54.25;99483.68;108123;1253;60477;-71
2023/07/31 06:03:45;;;;;;;18.10;15.90;;;;;;;28.85;53.75;99481.29;108068;1256;72587;-71
2023/07/31 06:06:13;;;;;;;19.40;15.90;;;;;;;28.92;54.05;99479.95;108018;1257;69996;-70
2023/07/31 06:08:41;;;;;;;18.90;16.80;;;;;;;28.89;53.72;99485.20;108074;1255;71737;-69
2023/07/31 06:11:09;;;;;;;19.60;16.10;;;;;;;28.90;53.75;99482.31;108025;1253;60942;-71
2023/07/31 06:13:36;;;;;;;19.00;16.90;;;;;;;28.88;53.65;99486.27;107926;1253;60553;-70
2023/07/31 06:16:07;;;;;;;19.70;17.60;;;;;;;29.09;52.96;99486.11;108001;1253;73843;-71
2023/07/31 06:18:34;;;;;;;19.30;16.90;;;;;;;29.19;52.72;99489.40;107966;1253;70306;-70
2023/07/31 06:21:02;;;;;;;18.60;16.20;;;;;;;29.11;52.83;99497.06;108042;1255;72678;-70
2023/07/31 06:23:29;;;;;;;21.10;18.00;;;;;;;28.93;52.92;99496.18;108055;1259;63813;-70
2023/07/31 06:25:56;;;;;;;14.30;12.70;;;;;;;28.97;52.90;99496.84;107994;1257;59827;-70
2023/07/31 06:28:29;;;;;;;16.60;14.80;;;;;;;29.18;52.64;99498.75;107989;1255;73816;-69
2023/07/31 06:30:57;;;;;;;19.00;17.00;;;;;;;29.62;51.53;99500.41;107959;1254;70136;-73
2023/07/31 06:33:24;;;;;;;17.40;14.40;;;;;;;29.94;50.93;99498.55;107882;1255;72607;-68
2023/07/31 06:35:52;;;;;;;21.70;17.60;;;;;;;30.03;50.34;99497.23;107847;1258;60566;-70
2023/07/31 06:38:22;;;;;;;21.40;17.80;;;;;;;29.67;51.35;99503.71;107974;1256;59545;-69
2023/07/31 06:40:50;;;;;;;21.70;16.60;;;;;;;29.63;51.36;99507.33;107909;1258;74459;-70
2023/07/31 06:43:17;;;;;;;19.70;17.60;;;;;;;29.52;51.93;99500.19;107907;1258;69119;-70
2023/07/31 06:45:45;;;;;;;18.00;16.10;;;;;;;29.54;52.31;99501.23;107928;1256;71463;-71
2023/07/31 06:48:13;;;;;;;22.10;19.40;;;;;;;29.49;52.37;99505.63;107920;1256;60745;-70
2023/07/31 06:50:40;;;;;;;20.50;18.30;;;;;;;29.67;52.23;99509.00;107954;1254;60609;-70
2023/07/31 06:53:07;;;;;;;20.00;15.80;;;;;;;29.76;52.17;99512.20;107904;1255;73237;-70
2023/07/31 06:55:35;;;;;;;22.20;18.60;;;;;;;29.71;52.62;99513.24;107939;1257;70813;-70
2023/07/31 06:58:02;;;;;;;19.50;17.40;;;;;;;29.73;52.53;99510.65;107898;1254;72507;-72
2023/07/31 07:00:30;;;;;;;18.60;16.70;;;;;;;29.67;52.10;99513.17;107975;1255;60694;-72
2023/07/31 07:02:57;;;;;;;20.90;18.60;;;;;;;29.68;52.30;99516.25;108018;1256;60360;-69
2023/07/31 07:05:25;;;;;;;19.20;16.70;;;;;;;29.57;53.05;99516.39;107965;1258;73879;-70
2023/07/31 07:07:52;;;;;;;21.50;18.20;;;;;;;29.56;53.07;99515.08;107938;1254;70440;-69
2023/07/31 07:10:19;;;;;;;22.10;18.50;;;;;;;29.38;53.58;99514.75;107900;1255;71940;-70
2023/07/31 07:12:47;;;;;;;19.00;16.40;;;;;;;29.24;53.79;99517.98;107894;1254;60371;-70
2023/07/31 07:15:15;;;;;;;22.50;18.70;;;;;;;29.27;53.80;99511.16;107975;1254;60403;-72
2023/07/31 07:17:42;;;;;;;20.20;18.10;;;;;;;29.45;53.63;99511.93;107919;1254;73883;-70
2023/07/31 07:20:09;;;;;;;23.00;19.00;;;;;;;29.67;52.94;99510.52;107928;1254;70143;-71
2023/07/31 07:22:37;;;;;;;21.80;19.30;;;;;;;29.76;52.92;99510.43;107909;1254;72738;-70
2023/07/31 07:25:04;;;;;;;22.40;20.00;;;;;;;29.98;52.85;99512.14;107865;1255;61665;-70
2023/07/31 07:27:32;;;;;;;25.20;20.30;;;;;;;30.20;52.23;99507.41;107951;1254;60664;-70
2023/07/31 07:29:59;;;;;;;18.70;16.50;;;;;;;30.11;52.41;99509.31;107939;1255;72651;-70
2023/07/31 07:32:27;;;;;;;21.10;18.70;;;;;;;30.12;52.49;99505.02;107896;1259;70002;-70
2023/07/31 07:34:55;;;;;;;22.00;18.50;;;;;;;30.18;52.93;99506.03;107889;1254;72830;-70
2023/07/31 07:37:22;;;;;;;21.90;18.00;;;;;;;30.32;52.45;99499.65;107990;1259;63247;-70
2023/07/31 07:39:50;;;;;;;24.30;19.90;;;;;;;30.40;52.14;99502.20;107896;1258;60207;-70
2023/07/31 07:42:19;;;;;;;21.90;18.90;;;;;;;30.21;52.70;99502.29;107957;1254;72586;-71
2023/07/31 07:44:49;;;;;;;19.30;16.40;;;;;;;30.19;52.60;99500.92;107948;1260;70434;-71
2023/07/31 07:47:16;;;;;;;22.00;19.30;;;;;;;30.25;52.44;99501.27;107940;1257;72051;-69
2023/07/31 07:49:44;;;;;;;21.50;17.60;;;;;;;30.50;51.96;99503.42;108004;1256;61698;-70
2023/07/31 07:52:19;;;;;;;21.70;18.10;;;;;;;30.39;51.41;99506.84;107903;1254;60351;-75
2023/07/31 07:54:46;;;;;;;21.10;17.80;;;;;;;30.59;51.05;99504.71;107908;1254;73832;-70
2023/07/31 07:57:13;;;;;;;21.90;18.30;;;;;;;30.82;50.58;99505.00;107929;1254;70849;-71
2023/07/31 07:59:41;;;;;;;22.80;19.40;;;;;;;30.78;51.03;99504.35;107913;1259;72443;-72
2023/07/31 08:02:09;;;;;;;21.30;17.30;;;;;;;31.13;50.91;99501.38;107985;1256;61097;-71
2023/07/31 08:04:36;;;;;;;19.90;17.50;;;;;;;31.30;50.38;99501.80;107978;1254;60308;-71
2023/07/31 08:07:04;;;;;;;24.80;18.80;;;;;;;31.40;50.32;99495.11;108058;1254;73904;-72
2023/07/31 08:09:31;;;;;;;21.60;17.60;;;;;;;31.79;50.14;99494.69;107910;1255;70269;-70
2023/07/31 08:12:02;;;;;;;21.10;16.70;;;;;;;32.11;48.80;99492.67;107997;1254;72999;-69
2023/07/31 08:14:29;;;;;;;17.90;15.60;;;;;;;32.70;47.67;99485.78;108004;1258;59256;-70
2023/07/31 08:17:00;;;;;;;21.30;16.50;;;;;;;33.16;46.56;99490.31;107931;1254;60543;-72
2023/07/31 08:19:27;;;;;;;16.90;15.00;;;;;;;33.70;44.62;99484.02;107929;1260;64919;-71
2023/07/31 08:21:55;;;;;;;15.50;13.90;;;;;;;34.07;43.49;99480.92;107913;1255;60686;-72
2023/07/31 08:24:24;;;;;;;15.80;14.00;;;;;;;34.37;41.63;99478.75;107979;1253;63780;-71
2023/07/31 08:26:52;;;;;;;15.30;13.70;;;;;;;34.61;41.18;99479.56;108067;1254;60417;-71
2023/07/31 08:29:19;;;;;;;14.40;12.80;;;;;;;34.78;40.67;99480.59;108070;1255;60454;-70
2023/07/31 08:31:47;;;;;;;14.90;13.30;;;;;;;34.89;40.13;99487.80;108091;1254;64928;-72
2023/07/31 08:34:14;;;;;;;18.50;13.10;;;;;;;34.99;39.35;99489.55;108007;1254;61401;-69
2023/07/31 08:36:41;;;;;;;15.70;13.30;;;;;;;35.13;39.23;99492.95;108029;1253;63833;-70
2023/07/31 08:39:10;;;;;;;16.60;13.10;;;;;;;35.24;39.06;99494.73;108009;1260;60421;-71
2023/07/31 08:41:41;;;;;;;18.10;12.10;;;;;;;35.45;39.16;99499.85;108063;1254;59152;-71
2023/07/31 08:44:09;;;;;;;17.50;13.40;;;;;;;35.66;38.53;99495.70;108079;1257;65052;-71
2023/07/31 08:46:36;;;;;;;14.90;13.30;;;;;;;36.13;37.46;99493.92;108074;1254;61684;-71
2023/07/31 08:49:05;;;;;;;16.00;13.00;;;;;;;36.29;37.15;99491.73;108040;1254;63779;-71
2023/07/31 08:51:36;;;;;;;15.70;13.70;;;;;;;36.52;36.69;99499.17;107904;1260;60523;-72
2023/07/31 08:54:04;;;;;;;14.10;11.50;;;;;;;36.55;36.23;99503.77;108050;1253;60194;-71
2023/07/31 08:56:34;;;;;;;14.90;12.40;;;;;;;36.40;35.65;99503.58;108076;1254;64931;-71
2023/07/31 08:59:02;;;;;;;13.60;12.10;;;;;;;36.47;35.18;99501.65;108016;1253;61529;-71
2023/07/31 09:01:29;;;;;;;13.90;11.10;;;;;;;36.53;35.34;99500.83;107922;1254;62508;-71
2023/07/31 09:03:59;;;;;;;13.20;11.80;;;;;;;36.50;35.09;99503.08;108013;1254;60482;-73
2023/07/31 09:06:28;;;;;;;14.40;11.30;;;;;;;36.34;34.63;99503.90;107901;1254;241475;-71
2023/07/31 09:10:45;;;;;;;13.50;11.60;;;;;;;34.07;38.63;99507.71;104903;1291;600334;-70
2023/07/31 09:13:16;;;;;;;12.00;9.50;;;;;;;35.04;37.39;99508.90;107314;1267;59179;-71
2023/07/31 09:15:45;;;;;;;14.60;11.40;;;;;;;35.19;36.75;99512.96;107870;1256;58710;-70
2023/07/31 09:18:14;;;;;;;14.30;11.60;;;;;;;35.29;36.61;99514.11;107926;1256;63362;-71
2023/07/31 09:20:41;;;;;;;13.00;11.40;;;;;;;35.64;35.83;99513.47;107882;1256;60179;-71
2023/07/31 09:23:10;;;;;;;14.20;12.10;;;;;;;35.66;36.15;99515.05;107739;1256;63729;-71
2023/07/31 09:25:38;;;;;;;12.90;11.50;;;;;;;35.73;36.17;99515.83;108002;1257;58988;-70
2023/07/31 09:28:07;;;;;;;15.90;13.30;;;;;;;35.77;36.34;99514.54;108211;1254;59253;-72
2023/07/31 09:30:46;;;;;;;15.30;12.40;;;;;;;35.58;36.47;99518.55;108172;1254;63308;-72
2023/07/31 09:33:14;;;;;;;14.60;10.90;;;;;;;35.72;36.30;99517.27;108254;1257;61715;-72
2023/07/31 09:35:42;;;;;;;14.20;12.30;;;;;;;35.76;36.06;99512.71;108158;1253;62609;-70
2023/07/31 09:38:10;;;;;;;13.60;11.50;;;;;;;35.66;36.03;99508.07;108113;1254;59600;-73
2023/07/31 09:40:42;;;;;;;14.40;11.10;;;;;;;35.88;35.74;99504.18;108185;1253;59500;-71
2023/07/31 09:43:18;;;;;;;16.60;12.00;;;;;;;35.88;35.83;99513.23;108185;1253;62930;-72
2023/07/31 09:45:45;;;;;;;18.90;12.00;;;;;;;35.96;36.01;99516.09;108215;1253;60452;-72
2023/07/31 09:48:17;;;;;;;14.30;11.50;;;;;;;35.91;35.98;99517.36;108064;1259;63785;-72
2023/07/31 09:50:47;;;;;;;13.80;12.20;;;;;;;35.80;35.81;99519.95;108189;1254;59352;-72
2023/07/31 09:53:15;;;;;;;14.30;12.10;;;;;;;35.71;35.95;99516.98;108062;1256;59498;-72
2023/07/31 09:55:43;;;;;;;14.90;13.30;;;;;;;35.83;36.03;99517.54;108135;1254;64144;-72
2023/07/31 09:58:11;;;;;;;15.50;13.50;;;;;;;35.71;36.14;99518.63;108155;1253;61394;-73
2023/07/31 10:00:39;;;;;;;15.70;13.80;;;;;;;35.62;36.54;99526.05;108160;1253;62923;-72
2023/07/31 10:03:08;;;;;;;16.70;14.40;;;;;;;35.49;36.79;99524.77;108057;1256;59148;-72
2023/07/31 10:06:02;;;;;;;16.20;13.70;;;;;;;35.43;37.30;99518.05;108147;1252;59341;-70
2023/07/31 10:08:30;;;;;;;20.40;13.50;;;;;;;35.53;37.00;99513.52;108117;1254;64223;-70
2023/07/31 10:10:58;;;;;;;17.10;15.10;;;;;;;35.31;37.14;99515.56;108088;1254;60776;-72
2023/07/31 10:13:26;;;;;;;15.60;13.30;;;;;;;35.38;37.27;99515.41;108152;1254;64064;-70
2023/07/31 10:15:53;;;;;;;21.20;14.90;;;;;;;35.28;37.29;99510.92;108122;1254;59753;-72
2023/07/31 10:18:20;;;;;;;28.90;14.90;;;;;;;35.25;36.98;99507.73;108091;1253;59640;-73
2023/07/31 10:20:48;;;;;;;18.00;13.50;;;;;;;35.26;36.98;99502.41;108127;1253;64043;-72
2023/07/31 10:23:15;;;;;;;20.40;14.20;;;;;;;35.31;36.91;99501.21;108141;1254;70390;-71
2023/07/31 10:25:43;;;;;;;16.30;13.10;;;;;;;35.29;37.16;99500.05;108063;1254;63749;-72
2023/07/31 10:28:10;;;;;;;16.20;14.50;;;;;;;35.27;36.94;99503.95;107892;1254;59544;-71
2023/07/31 10:30:38;;;;;;;16.80;14.10;;;;;;;34.98;37.04;99504.80;107888;1254;59555;-70
2023/07/31 10:33:05;;;;;;;14.90;12.90;;;;;;;35.12;37.27;99504.14;108054;1253;62830;-71
2023/07/31 10:35:33;;;;;;;14.30;12.70;;;;;;;35.22;37.01;99502.02;108066;1254;60111;-72
2023/07/31 10:38:14;;;;;;;15.20;12.40;;;;;;;35.39;36.37;99501.05;108034;1254;62879;-70
2023/07/31 10:40:41;;;;;;;15.70;12.90;;;;;;;35.56;36.31;99496.65;108101;1254;59466;-71
2023/07/31 10:43:11;;;;;;;17.50;13.90;;;;;;;35.64;36.34;99493.70;107994;1254;59151;-73
2023/07/31 10:45:41;;;;;;;15.00;13.50;;;;;;;35.53;36.36;99495.43;107955;1254;62842;-71
2023/07/31 10:48:13;;;;;;;14.90;13.30;;;;;;;35.38;36.68;99502.65;108021;1254;60103;-71
2023/07/31 10:50:56;;;;;;;14.80;12.90;;;;;;;35.54;36.48;99502.75;108038;1258;62471;-72
2023/07/31 10:53:32;;;;;;;14.70;11.10;;;;;;;35.69;35.95;99504.42;108062;1254;60063;-71
2023/07/31 10:56:00;;;;;;;12.90;10.80;;;;;;;35.90;34.60;99512.33;108130;1254;59042;-72
2023/07/31 10:58:28;;;;;;;13.10;11.10;;;;;;;36.00;34.36;99515.42;108019;1254;64176;-71
2023/07/31 11:00:56;;;;;;;13.40;10.70;;;;;;;36.04;34.60;99514.39;108039;1253;60281;-72
2023/07/31 11:03:25;;;;;;;12.90;10.60;;;;;;;35.93;33.79;99512.69;108078;1254;63560;-71
2023/07/31 11:05:59;;;;;;;10.60;9.30;;;;;;;35.62;33.66;99510.66;108121;1258;59143;-71
2023/07/31 11:08:34;;;;;;;12.30;10.10;;;;;;;35.53;33.63;99510.41;108021;1254;59666;-71
2023/07/31 11:11:01;;;;;;;12.20;10.20;;;;;;;35.60;34.12;99510.58;108034;1253;62963;-72
2023/07/31 11:13:53;;;;;;;12.50;10.20;;;;;;;35.68;33.94;99510.16;108070;1254;61367;-70
2023/07/31 11:16:22;;;;;;;17.30;11.80;;;;;;;35.81;34.32;99508.52;108129;1254;62516;-71